createdAt,value
2022-11-19T00:01:49.229Z,63.72
2022-11-19T00:04:50.977Z,63.70
2022-11-19T00:07:52.732Z,63.72
2022-11-19T00:10:54.318Z,63.78
2022-11-19T00:13:56.005Z,63.95
2022-11-19T00:16:57.641Z,64.14
2022-11-19T00:19:59.254Z,64.14
2022-11-19T00:23:01.285Z,64.17
2022-11-19T00:26:12.078Z,64.27
2022-11-19T00:29:17.842Z,64.30
2022-11-19T00:32:19.840Z,64.39
2022-11-19T00:35:21.470Z,64.41
2022-11-19T00:38:23.162Z,64.45
2022-11-19T00:41:24.741Z,64.46
2022-11-19T00:44:26.360Z,64.55
2022-11-19T00:47:27.987Z,64.68
2022-11-19T00:50:29.616Z,64.71
2022-11-19T00:53:31.317Z,64.80
2022-11-19T00:56:32.974Z,64.80
2022-11-19T00:59:34.603Z,64.85
2022-11-19T01:02:36.208Z,64.88
2022-11-19T01:05:38.204Z,64.92
2022-11-19T01:08:39.848Z,65.04
2022-11-19T01:11:41.637Z,65.06
2022-11-19T01:14:43.248Z,65.16
2022-11-19T01:17:44.864Z,65.24
2022-11-19T01:20:46.662Z,65.31
2022-11-19T01:23:49.033Z,65.33
2022-11-19T01:26:50.686Z,65.37
2022-11-19T01:29:52.366Z,65.42
2022-11-19T01:32:54.088Z,65.49
2022-11-19T01:35:55.697Z,65.52
2022-11-19T01:38:57.808Z,65.62
2022-11-19T01:41:59.371Z,65.67
2022-11-19T01:45:06.889Z,65.65
2022-11-19T01:48:25.940Z,65.68
2022-11-19T01:51:45.840Z,65.75
2022-11-19T01:54:52.460Z,65.84
2022-11-19T01:57:57.954Z,65.93
2022-11-19T02:00:59.923Z,65.92
2022-11-19T02:04:04.183Z,65.97
2022-11-19T02:07:07.037Z,66.05
2022-11-19T02:10:09.335Z,66.03
2022-11-19T02:13:13.920Z,66.10
2022-11-19T02:16:43.619Z,66.08
2022-11-19T02:20:06.702Z,66.19
2022-11-19T02:23:45.966Z,66.27
2022-11-19T02:26:56.698Z,66.27
2022-11-19T02:30:11.925Z,66.31
2022-11-19T02:33:28.759Z,66.41
2022-11-19T02:37:02.571Z,66.55
2022-11-19T02:40:22.176Z,66.48
2022-11-19T02:43:35.171Z,66.59
2022-11-19T02:46:37.544Z,66.63
2022-11-19T02:49:44.030Z,66.74
2022-11-19T02:52:47.111Z,66.85
2022-11-19T02:56:08.055Z,66.91
2022-11-19T02:59:29.300Z,66.96
2022-11-19T03:02:55.224Z,67.06
2022-11-19T03:06:02.506Z,66.95
2022-11-19T03:09:04.496Z,67.00
2022-11-19T03:12:25.344Z,67.04
2022-11-19T03:16:05.267Z,67.07
2022-11-19T03:19:22.159Z,67.12
2022-11-19T03:22:34.207Z,67.17
2022-11-19T03:25:44.023Z,67.15
2022-11-19T03:28:47.314Z,67.18
2022-11-19T03:31:57.722Z,67.21
2022-11-19T03:35:03.697Z,67.31
2022-11-19T03:38:11.333Z,67.36
2022-11-19T03:41:16.674Z,67.35
2022-11-19T03:44:21.459Z,67.40
2022-11-19T03:47:32.965Z,67.44
2022-11-19T03:50:44.320Z,67.42
2022-11-19T03:53:46.182Z,67.41
2022-11-19T03:56:49.510Z,67.44
2022-11-19T03:59:51.198Z,67.55
2022-11-19T04:02:52.890Z,67.50
2022-11-19T04:05:54.459Z,67.58
2022-11-19T04:08:56.086Z,67.60
2022-11-19T04:11:57.758Z,67.66
2022-11-19T04:14:59.401Z,67.70
2022-11-19T04:18:01.050Z,67.73
2022-11-19T04:21:02.709Z,67.75
2022-11-19T04:24:04.807Z,67.76
2022-11-19T04:27:06.444Z,67.80
2022-11-19T04:30:09.145Z,67.85
2022-11-19T04:33:10.731Z,67.95
2022-11-19T04:36:12.453Z,68.03
2022-11-19T04:39:14.039Z,68.07
2022-11-19T04:42:15.680Z,68.15
2022-11-19T04:45:17.347Z,68.28
2022-11-19T04:48:18.973Z,68.33
2022-11-19T04:51:20.607Z,68.32
2022-11-19T04:54:22.278Z,68.26
2022-11-19T04:57:23.887Z,68.27
2022-11-19T05:00:25.584Z,68.24
2022-11-19T05:03:27.445Z,68.22
2022-11-19T05:06:29.122Z,68.12
2022-11-19T05:09:30.779Z,68.02
2022-11-19T05:12:32.457Z,68.03
2022-11-19T05:15:34.152Z,67.89
2022-11-19T05:18:35.819Z,67.68
2022-11-19T05:21:37.413Z,67.59
2022-11-19T05:24:39.207Z,67.47
2022-11-19T05:27:40.852Z,67.32
2022-11-19T05:30:42.469Z,67.21
2022-11-19T05:33:44.164Z,67.10
2022-11-19T05:36:45.855Z,66.94
2022-11-19T05:39:47.521Z,66.80
2022-11-19T05:42:49.172Z,66.70
2022-11-19T05:45:51.042Z,66.70
2022-11-19T05:48:52.706Z,66.70
2022-11-19T05:51:54.330Z,66.68
2022-11-19T05:54:55.921Z,66.81
2022-11-19T05:57:57.754Z,66.82
2022-11-19T06:00:59.650Z,66.69
2022-11-19T06:04:01.245Z,66.67
2022-11-19T06:07:03.146Z,66.61
2022-11-19T06:10:05.271Z,66.59
2022-11-19T06:13:06.958Z,66.59
2022-11-19T06:16:08.592Z,66.67
2022-11-19T06:19:10.493Z,66.73
2022-11-19T06:22:12.119Z,66.65
2022-11-19T06:25:13.966Z,66.57
2022-11-19T06:28:15.576Z,66.52
2022-11-19T06:31:17.701Z,66.49
2022-11-19T06:34:19.311Z,66.47
2022-11-19T06:37:20.969Z,66.55
2022-11-19T06:40:22.608Z,66.60
2022-11-19T06:43:24.361Z,66.53
2022-11-19T06:46:25.961Z,66.49
2022-11-19T06:49:27.625Z,66.51
2022-11-19T06:52:29.253Z,66.51
2022-11-19T06:55:30.895Z,66.53
2022-11-19T06:58:33.391Z,66.56
2022-11-19T07:01:35.191Z,66.60
2022-11-19T07:04:36.924Z,66.68
2022-11-19T07:07:38.705Z,66.73
2022-11-19T07:10:40.481Z,66.69
2022-11-19T07:14:08.449Z,66.69
2022-11-19T07:17:10.115Z,66.65
2022-11-19T07:20:12.028Z,66.70
2022-11-19T07:23:13.727Z,66.78
2022-11-19T07:26:15.384Z,66.78
2022-11-19T07:29:17.131Z,66.75
2022-11-19T07:32:18.827Z,66.73
2022-11-19T07:35:20.491Z,66.90
2022-11-19T07:38:22.093Z,67.04
2022-11-19T07:41:42.390Z,67.05
2022-11-19T07:44:44.053Z,67.14
2022-11-19T07:47:45.919Z,67.26
2022-11-19T07:50:56.161Z,67.36
2022-11-19T07:53:58.172Z,67.27
2022-11-19T07:57:00.103Z,67.24
2022-11-19T08:00:03.516Z,67.20
2022-11-19T08:03:14.197Z,67.18
2022-11-19T08:06:17.986Z,67.20
2022-11-19T08:09:19.983Z,67.15
2022-11-19T08:12:21.857Z,67.14
2022-11-19T08:15:23.496Z,67.07
2022-11-19T08:18:30.913Z,66.96
2022-11-19T08:21:33.881Z,66.92
2022-11-19T08:24:35.592Z,67.01
2022-11-19T08:27:37.208Z,67.04
2022-11-19T08:30:40.362Z,67.03
2022-11-19T08:33:42.080Z,66.94
2022-11-19T08:36:44.080Z,66.86
2022-11-19T08:39:45.824Z,66.77
2022-11-19T08:43:00.869Z,66.82
2022-11-19T08:46:02.632Z,66.79
2022-11-19T08:49:04.960Z,66.77
2022-11-19T08:52:09.961Z,66.36
2022-11-19T08:55:12.450Z,65.98
2022-11-19T08:58:14.346Z,65.62
2022-11-19T09:01:17.100Z,65.33
2022-11-19T09:04:19.242Z,64.91
2022-11-19T09:07:21.011Z,64.44
2022-11-19T09:10:22.801Z,64.55
2022-11-19T09:13:24.763Z,64.22
2022-11-19T09:16:27.617Z,63.81
2022-11-19T09:19:29.273Z,63.29
2022-11-19T09:22:31.118Z,62.79
2022-11-19T09:25:33.125Z,62.41
2022-11-19T09:28:35.521Z,61.98
2022-11-19T09:31:37.211Z,61.51
2022-11-19T09:34:40.743Z,61.16
2022-11-19T09:37:42.396Z,60.30
2022-11-19T09:40:50.635Z,59.48
2022-11-19T09:44:20.272Z,59.43
2022-11-19T09:47:58.530Z,59.30
2022-11-19T09:51:07.398Z,58.99
2022-11-19T09:54:16.862Z,58.38
2022-11-19T09:57:31.598Z,58.04
2022-11-19T10:00:45.611Z,57.34
2022-11-19T10:03:49.842Z,56.84
2022-11-19T10:07:00.533Z,56.43
2022-11-19T10:10:33.566Z,56.01
2022-11-19T10:13:49.637Z,55.69
2022-11-19T10:17:02.681Z,55.61
2022-11-19T10:20:22.431Z,55.18
2022-11-19T10:23:44.092Z,55.05
2022-11-19T10:26:57.475Z,55.17
2022-11-19T10:30:04.053Z,54.89
2022-11-19T10:33:30.510Z,54.58
2022-11-19T10:36:44.263Z,54.39
2022-11-19T10:40:16.841Z,54.31
2022-11-19T10:43:23.340Z,54.61
2022-11-19T10:46:28.042Z,54.36
2022-11-19T10:49:31.754Z,54.36
2022-11-19T10:53:01.828Z,54.46
2022-11-19T10:56:09.322Z,54.82
2022-11-19T10:59:15.834Z,54.74
2022-11-19T11:02:46.396Z,54.77
2022-11-19T11:05:54.871Z,54.41
2022-11-19T11:08:56.528Z,54.36
2022-11-19T11:12:38.753Z,54.44
2022-11-19T11:15:51.665Z,54.99
2022-11-19T11:18:59.535Z,54.90
2022-11-19T11:22:02.812Z,54.97
2022-11-19T11:25:26.673Z,54.80
2022-11-19T11:28:29.185Z,54.95
2022-11-19T11:31:34.200Z,54.83
2022-11-19T11:34:43.712Z,55.07
2022-11-19T11:37:50.418Z,55.06
2022-11-19T11:41:43.945Z,54.95
2022-11-19T11:44:26.976Z,55.02
2022-11-19T11:47:36.161Z,55.38
2022-11-19T11:50:38.327Z,55.00
2022-11-19T11:53:42.807Z,54.89
2022-11-19T11:56:45.030Z,54.82
2022-11-19T11:59:47.154Z,54.60
2022-11-19T12:03:04.339Z,54.87
2022-11-19T12:06:14.851Z,54.85
2022-11-19T12:09:19.712Z,54.79
2022-11-19T12:12:37.860Z,54.68
2022-11-19T12:15:58.154Z,54.84
2022-11-19T12:19:08.216Z,54.80
2022-11-19T12:22:21.097Z,54.80
2022-11-19T12:25:31.928Z,54.56
2022-11-19T12:28:55.009Z,54.40
2022-11-19T12:32:13.446Z,54.45
2022-11-19T12:35:21.242Z,54.54
2022-11-19T12:38:29.151Z,54.52
2022-11-19T12:41:56.029Z,54.50
2022-11-19T12:45:36.605Z,54.45
2022-11-19T12:48:59.761Z,54.63
2022-11-19T12:52:23.480Z,54.57
2022-11-19T12:55:39.273Z,54.49
2022-11-19T12:58:40.923Z,54.66
2022-11-19T13:01:48.013Z,54.69
2022-11-19T13:04:57.092Z,54.79
2022-11-19T13:08:05.405Z,54.64
2022-11-19T13:11:24.929Z,54.82
2022-11-19T13:14:39.340Z,54.71
2022-11-19T13:17:46.500Z,54.80
2022-11-19T13:21:06.811Z,54.89
2022-11-19T13:24:29.424Z,54.92
2022-11-19T13:27:31.953Z,54.92
2022-11-19T13:30:34.790Z,54.97
2022-11-19T13:33:47.731Z,54.91
2022-11-19T13:37:03.916Z,54.71
2022-11-19T13:40:16.837Z,54.82
2022-11-19T13:43:39.746Z,54.86
2022-11-19T13:46:43.911Z,55.01
2022-11-19T13:49:51.691Z,54.89
2022-11-19T13:53:01.115Z,54.70
2022-11-19T13:56:03.032Z,54.35
2022-11-19T13:59:06.336Z,54.14
2022-11-19T14:02:10.891Z,53.96
2022-11-19T14:05:15.257Z,54.00
2022-11-19T14:08:23.878Z,53.96
2022-11-19T14:11:54.574Z,53.99
2022-11-19T14:15:24.082Z,54.05
2022-11-19T14:18:50.145Z,53.99
2022-11-19T14:22:13.781Z,54.19
2022-11-19T14:26:05.837Z,54.35
2022-11-19T14:29:26.076Z,54.35
2022-11-19T14:32:33.023Z,54.53
2022-11-19T14:35:38.408Z,55.48
2022-11-19T14:38:55.204Z,55.68
2022-11-19T14:42:23.148Z,55.44
2022-11-19T14:45:25.139Z,55.64
2022-11-19T14:48:50.023Z,55.97
2022-11-19T14:51:54.523Z,56.83
2022-11-19T14:55:17.206Z,57.07
2022-11-19T14:58:22.699Z,57.76
2022-11-19T15:01:24.822Z,58.27
2022-11-19T15:04:41.782Z,58.29
2022-11-19T15:07:54.298Z,58.20
2022-11-19T15:11:10.971Z,58.48
2022-11-19T15:14:33.317Z,58.93
2022-11-19T15:17:41.378Z,59.24
2022-11-19T15:21:22.345Z,59.36
2022-11-19T15:24:26.927Z,58.94
2022-11-19T15:27:57.945Z,59.42
2022-11-19T15:31:30.818Z,59.60
2022-11-19T15:35:09.607Z,59.82
2022-11-19T15:38:18.512Z,59.78
2022-11-19T15:41:23.765Z,59.87
2022-11-19T15:44:44.775Z,60.16
2022-11-19T15:48:06.893Z,60.46
2022-11-19T15:51:13.699Z,60.65
2022-11-19T15:54:15.387Z,60.51
2022-11-19T15:57:20.455Z,60.58
2022-11-19T16:00:22.709Z,60.90
2022-11-19T16:03:24.333Z,61.13
2022-11-19T16:06:30.158Z,60.98
2022-11-19T16:09:32.666Z,60.97
2022-11-19T16:12:52.962Z,61.24
2022-11-19T16:16:13.007Z,61.41
2022-11-19T16:19:16.120Z,61.64
2022-11-19T16:22:18.052Z,61.71
2022-11-19T16:25:37.109Z,61.80
2022-11-19T16:28:39.024Z,61.99
2022-11-19T16:31:41.028Z,62.20
2022-11-19T16:34:42.962Z,62.18
2022-11-19T16:37:48.590Z,62.05
2022-11-19T16:41:09.504Z,62.06
2022-11-19T16:44:18.411Z,62.24
2022-11-19T16:47:32.614Z,62.30
2022-11-19T16:50:37.092Z,62.12
2022-11-19T16:53:46.733Z,62.15
2022-11-19T16:56:48.954Z,62.28
2022-11-19T16:59:55.975Z,62.42
2022-11-19T17:03:05.292Z,62.65
2022-11-19T17:06:09.056Z,63.01
2022-11-19T17:09:47.067Z,62.93
2022-11-19T17:12:55.771Z,62.84
2022-11-19T17:16:16.529Z,62.84
2022-11-19T17:19:33.339Z,62.93
2022-11-19T17:22:35.959Z,62.95
2022-11-19T17:25:45.996Z,62.93
2022-11-19T17:28:49.986Z,63.03
2022-11-19T17:31:55.588Z,63.10
2022-11-19T17:34:57.371Z,63.14
2022-11-19T17:38:19.242Z,63.30
2022-11-19T17:41:45.397Z,63.28
2022-11-19T17:44:47.475Z,63.15
2022-11-19T17:47:49.546Z,63.04
2022-11-19T17:50:51.350Z,63.00
2022-11-19T17:53:56.179Z,62.98
2022-11-19T17:56:58.212Z,63.06
2022-11-19T17:59:59.945Z,63.10
2022-11-19T18:03:03.193Z,63.13
2022-11-19T18:06:07.516Z,63.19
2022-11-19T18:09:09.166Z,63.33
2022-11-19T18:12:16.520Z,63.33
2022-11-19T18:15:20.262Z,63.25
2022-11-19T18:18:22.018Z,63.32
2022-11-19T18:21:23.747Z,63.34
2022-11-19T18:24:25.460Z,63.39
2022-11-19T18:27:27.350Z,63.50
2022-11-19T18:30:29.062Z,63.58
2022-11-19T18:33:31.671Z,63.48
2022-11-19T18:36:33.351Z,63.41
2022-11-19T18:39:35.162Z,63.43
2022-11-19T18:42:37.208Z,63.51
2022-11-19T18:45:38.931Z,63.61
2022-11-19T18:48:40.761Z,63.66
2022-11-19T18:51:43.675Z,63.63
2022-11-19T18:54:45.935Z,63.68
2022-11-19T18:57:47.717Z,63.76
2022-11-19T19:00:49.321Z,63.81
2022-11-19T19:03:51.752Z,63.84
2022-11-19T19:06:53.516Z,63.88
2022-11-19T19:09:55.157Z,64.09
2022-11-19T19:12:56.826Z,64.16
2022-11-19T19:16:01.265Z,64.00
2022-11-19T19:19:03.443Z,63.86
2022-11-19T19:22:06.716Z,63.83
2022-11-19T19:25:09.072Z,63.78
2022-11-19T19:28:10.793Z,64.24
2022-11-19T19:31:17.503Z,64.69
2022-11-19T19:34:19.765Z,64.79
2022-11-19T19:37:21.420Z,64.61
2022-11-19T19:40:23.186Z,64.51
2022-11-19T19:43:24.860Z,64.29
2022-11-19T19:46:26.789Z,64.07
2022-11-19T19:49:28.891Z,64.03
2022-11-19T19:52:30.744Z,64.08
2022-11-19T19:55:32.417Z,64.33
2022-11-19T19:58:35.216Z,64.15
2022-11-19T20:01:37.010Z,63.86
2022-11-19T20:04:38.765Z,63.59
2022-11-19T20:07:40.567Z,63.63
2022-11-19T20:10:42.443Z,63.58
2022-11-19T20:13:44.389Z,63.45
2022-11-19T20:16:46.184Z,63.34
2022-11-19T20:19:47.898Z,63.35
2022-11-19T20:22:49.641Z,63.33
2022-11-19T20:25:55.907Z,63.27
2022-11-19T20:29:02.949Z,63.17
2022-11-19T20:32:04.711Z,63.01
2022-11-19T20:35:06.766Z,63.02
2022-11-19T20:38:08.394Z,63.15
2022-11-19T20:41:32.270Z,63.37
2022-11-19T20:44:33.978Z,63.32
2022-11-19T20:47:35.715Z,63.06
2022-11-19T20:50:37.445Z,62.85
2022-11-19T20:53:39.393Z,62.73
2022-11-19T20:56:41.933Z,62.76
2022-11-19T20:59:44.065Z,62.72
2022-11-19T21:02:45.724Z,62.65
2022-11-19T21:05:47.463Z,62.73
2022-11-19T21:08:49.483Z,62.77
2022-11-19T21:11:51.149Z,62.78
2022-11-19T21:14:54.347Z,62.68
2022-11-19T21:17:55.994Z,62.70
2022-11-19T21:21:01.448Z,62.67
2022-11-19T21:24:03.706Z,62.59
2022-11-19T21:27:05.350Z,62.57
2022-11-19T21:30:07.749Z,62.82
2022-11-19T21:33:09.675Z,62.75
2022-11-19T21:36:11.941Z,62.70
2022-11-19T21:39:15.811Z,62.66
2022-11-19T21:42:18.118Z,62.65
2022-11-19T21:45:19.883Z,62.65
2022-11-19T21:48:22.377Z,62.63
2022-11-19T21:51:25.338Z,62.61
2022-11-19T21:54:27.607Z,62.54
2022-11-19T21:57:29.335Z,62.54
2022-11-19T22:00:34.045Z,62.57
2022-11-19T22:03:35.890Z,62.66
2022-11-19T22:06:37.530Z,62.68
2022-11-19T22:09:39.175Z,62.63
2022-11-19T22:12:41.211Z,62.52
2022-11-19T22:15:42.939Z,62.53
2022-11-19T22:18:44.991Z,62.56
2022-11-19T22:21:46.704Z,62.58
2022-11-19T22:24:52.016Z,62.54
2022-11-19T22:27:53.879Z,62.47
2022-11-19T22:30:55.511Z,62.43
2022-11-19T22:33:57.118Z,62.39
2022-11-19T22:36:58.843Z,62.39
2022-11-19T22:40:00.639Z,62.47
2022-11-19T22:43:02.577Z,62.57
2022-11-19T22:46:05.638Z,62.72
2022-11-19T22:49:07.380Z,62.71
2022-11-19T22:52:09.390Z,62.62
2022-11-19T22:55:11.022Z,62.65
2022-11-19T22:58:12.680Z,62.80
2022-11-19T23:01:29.863Z,62.62
2022-11-19T23:04:31.578Z,62.52
2022-11-19T23:07:33.273Z,62.35
2022-11-19T23:10:35.411Z,62.27
2022-11-19T23:13:38.732Z,62.16
2022-11-19T23:16:41.635Z,62.34
2022-11-19T23:19:43.330Z,62.31
2022-11-19T23:22:44.895Z,62.15
2022-11-19T23:25:46.555Z,62.03
2022-11-19T23:28:48.936Z,62.12
2022-11-19T23:31:50.590Z,62.13
2022-11-19T23:34:52.247Z,62.11
2022-11-19T23:37:54.027Z,62.11
2022-11-19T23:40:59.831Z,62.18
2022-11-19T23:44:01.870Z,62.23
2022-11-19T23:47:06.003Z,62.30
2022-11-19T23:50:08.073Z,62.50
2022-11-19T23:53:09.694Z,62.53
2022-11-19T23:56:12.980Z,62.56
2022-11-19T23:59:15.182Z,62.56
